createdAt,value
2023-05-03T00:00:12.257Z,1.03
2023-05-03T00:01:12.291Z,1.01
2023-05-03T00:02:12.596Z,1.04
2023-05-03T00:03:12.379Z,1.04
2023-05-03T00:04:12.397Z,1.04
2023-05-03T00:05:12.970Z,1.03
2023-05-03T00:06:12.537Z,1.03
2023-05-03T00:07:12.503Z,1.01
2023-05-03T00:08:12.529Z,1.02
2023-05-03T00:09:12.552Z,1.03
2023-05-03T00:10:12.551Z,0.99
2023-05-03T00:11:12.535Z,1.02
2023-05-03T00:12:13.036Z,1.01
2023-05-03T00:13:12.556Z,1.01
2023-05-03T00:14:12.587Z,1.01
2023-05-03T00:15:13.560Z,1.00
2023-05-03T00:16:12.648Z,1.03
2023-05-03T00:17:12.691Z,1.02
2023-05-03T00:18:12.782Z,1.00
2023-05-03T00:19:24.300Z,1.01
2023-05-03T00:20:13.641Z,1.01
2023-05-03T00:21:12.599Z,1.01
2023-05-03T00:22:12.570Z,1.00
2023-05-03T00:23:12.527Z,1.00
2023-05-03T00:24:12.495Z,0.97
2023-05-03T00:25:12.463Z,1.00
2023-05-03T00:26:12.431Z,1.00
2023-05-03T00:27:12.399Z,1.01
2023-05-03T00:28:12.412Z,1.02
2023-05-03T00:29:12.442Z,1.00
2023-05-03T00:30:12.484Z,1.00
2023-05-03T00:31:12.540Z,1.01
2023-05-03T00:32:12.596Z,0.98
2023-05-03T00:33:12.634Z,1.01
2023-05-03T00:34:12.595Z,0.99
2023-05-03T00:35:12.640Z,1.00
2023-05-03T00:36:12.671Z,1.00
2023-05-03T00:37:12.683Z,1.00
2023-05-03T00:38:12.715Z,0.99
2023-05-03T00:39:12.734Z,0.97
2023-05-03T00:40:12.739Z,0.98
2023-05-03T00:41:12.784Z,0.98
2023-05-03T00:42:12.801Z,0.98
2023-05-03T00:43:12.861Z,0.98
2023-05-03T00:44:12.903Z,0.99
2023-05-03T00:45:12.942Z,0.97
2023-05-03T00:46:17.354Z,0.96
2023-05-03T00:47:13.117Z,0.97
2023-05-03T00:48:12.981Z,0.97
2023-05-03T00:49:12.880Z,0.98
2023-05-03T00:50:12.859Z,0.97
2023-05-03T00:51:12.814Z,0.99
2023-05-03T00:52:12.787Z,0.97
2023-05-03T00:53:12.757Z,0.97
2023-05-03T00:54:12.721Z,0.98
2023-05-03T00:55:12.692Z,0.97
2023-05-03T00:56:12.650Z,0.97
2023-05-03T00:57:12.614Z,0.95
2023-05-03T00:58:12.651Z,0.96
2023-05-03T00:59:12.685Z,0.96
2023-05-03T01:00:12.726Z,0.96
2023-05-03T01:01:12.775Z,0.97
2023-05-03T01:02:12.811Z,0.92
2023-05-03T01:03:12.922Z,0.95
2023-05-03T01:04:12.808Z,0.95
2023-05-03T01:05:12.840Z,0.96
2023-05-03T01:06:12.913Z,0.92
2023-05-03T01:07:12.921Z,0.95
2023-05-03T01:08:12.938Z,0.95
2023-05-03T01:09:12.994Z,0.94
2023-05-03T01:10:13.027Z,0.94
2023-05-03T01:11:13.075Z,0.95
2023-05-03T01:12:13.092Z,0.94
2023-05-03T01:13:13.138Z,0.94
2023-05-03T01:14:13.179Z,0.93
2023-05-03T01:15:13.193Z,0.92
2023-05-03T01:16:13.288Z,0.93
2023-05-03T01:17:13.297Z,0.92
2023-05-03T01:18:13.407Z,0.93
2023-05-03T01:19:13.366Z,0.92
2023-05-03T01:20:13.373Z,0.92
2023-05-03T01:21:13.379Z,0.93
2023-05-03T01:22:13.398Z,0.93
2023-05-03T01:23:13.400Z,0.94
2023-05-03T01:24:13.398Z,0.93
2023-05-03T01:25:13.388Z,0.93
2023-05-03T01:26:13.402Z,0.93
2023-05-03T01:27:13.409Z,0.92
2023-05-03T01:28:13.439Z,0.92
2023-05-03T01:29:13.480Z,0.92
2023-05-03T01:30:13.502Z,0.91
2023-05-03T01:31:13.575Z,0.91
2023-05-03T01:32:13.597Z,0.92
2023-05-03T01:33:13.621Z,0.92
2023-05-03T01:34:13.666Z,0.91
2023-05-03T01:35:13.711Z,0.91
2023-05-03T01:36:13.748Z,0.90
2023-05-03T01:37:13.800Z,0.90
2023-05-03T01:38:13.879Z,0.94
2023-05-03T01:39:13.877Z,0.91
2023-05-03T01:40:13.901Z,0.91
2023-05-03T01:41:13.956Z,0.92
2023-05-03T01:42:13.988Z,0.91
2023-05-03T01:43:14.016Z,0.90
2023-05-03T01:44:14.053Z,0.91
2023-05-03T01:45:14.078Z,0.89
2023-05-03T01:46:14.202Z,0.90
2023-05-03T01:47:14.153Z,0.91
2023-05-03T01:48:14.216Z,0.92
2023-05-03T01:49:14.220Z,0.88
2023-05-03T01:50:14.242Z,0.90
2023-05-03T01:51:14.268Z,0.90
2023-05-03T01:52:14.306Z,0.89
2023-05-03T01:53:14.337Z,0.89
2023-05-03T01:54:14.375Z,0.88
2023-05-03T01:55:14.401Z,0.88
2023-05-03T01:56:14.435Z,0.89
2023-05-03T01:57:14.464Z,0.91
2023-05-03T01:58:14.484Z,0.89
2023-05-03T01:59:14.586Z,0.89
2023-05-03T02:00:14.574Z,0.89
2023-05-03T02:01:14.714Z,0.88
2023-05-03T02:02:14.642Z,0.87
2023-05-03T02:03:14.673Z,0.87
2023-05-03T02:04:14.718Z,0.87
2023-05-03T02:05:14.728Z,0.88
2023-05-03T02:06:14.807Z,0.90
2023-05-03T02:07:14.802Z,0.90
2023-05-03T02:08:14.812Z,0.89
2023-05-03T02:09:14.852Z,0.88
2023-05-03T02:10:15.007Z,0.89
2023-05-03T02:11:14.905Z,0.86
2023-05-03T02:12:14.947Z,0.88
2023-05-03T02:13:15.023Z,0.88
2023-05-03T02:14:14.995Z,0.88
2023-05-03T02:15:15.028Z,0.89
2023-05-03T02:16:15.084Z,0.87
2023-05-03T02:17:15.097Z,0.87
2023-05-03T02:18:15.120Z,0.87
2023-05-03T02:19:15.144Z,0.88
2023-05-03T02:20:15.179Z,0.87
2023-05-03T02:21:15.211Z,0.91
2023-05-03T02:22:15.244Z,0.88
2023-05-03T02:23:15.279Z,0.88
2023-05-03T02:24:15.298Z,0.86
2023-05-03T02:25:15.344Z,0.86
2023-05-03T02:26:15.437Z,0.87
2023-05-03T02:27:15.400Z,0.86
2023-05-03T02:28:15.435Z,0.87
2023-05-03T02:29:15.468Z,0.86
2023-05-03T02:30:15.530Z,0.88
2023-05-03T02:31:15.566Z,0.87
2023-05-03T02:32:15.559Z,0.87
2023-05-03T02:33:15.594Z,0.83
2023-05-03T02:34:15.627Z,0.84
2023-05-03T02:35:15.646Z,0.84
2023-05-03T02:36:15.670Z,0.85
2023-05-03T02:37:15.700Z,0.85
2023-05-03T02:38:15.739Z,0.86
2023-05-03T02:39:15.747Z,0.84
2023-05-03T02:40:15.786Z,0.81
2023-05-03T02:41:15.803Z,0.83
2023-05-03T02:42:15.827Z,0.86
2023-05-03T02:43:15.863Z,0.86
2023-05-03T02:44:15.893Z,0.84
2023-05-03T02:45:16.608Z,0.85
2023-05-03T02:46:15.968Z,0.85
2023-05-03T02:47:15.958Z,0.85
2023-05-03T02:48:15.994Z,0.86
2023-05-03T02:49:16.016Z,0.85
2023-05-03T02:50:16.049Z,0.87
2023-05-03T02:51:16.079Z,0.83
2023-05-03T02:52:16.175Z,0.85
2023-05-03T02:53:16.128Z,0.85
2023-05-03T02:54:16.153Z,0.85
2023-05-03T02:55:16.183Z,0.87
2023-05-03T02:56:16.236Z,0.85
2023-05-03T02:57:16.230Z,0.85
2023-05-03T02:58:16.252Z,0.84
2023-05-03T02:59:16.286Z,0.85
2023-05-03T03:00:16.322Z,0.85
2023-05-03T03:01:16.370Z,0.84
2023-05-03T03:02:16.367Z,0.82
2023-05-03T03:03:16.470Z,0.85
2023-05-03T03:04:16.425Z,0.84
2023-05-03T03:05:16.453Z,0.85
2023-05-03T03:06:16.539Z,0.82
2023-05-03T03:07:16.509Z,0.80
2023-05-03T03:08:16.533Z,0.81
2023-05-03T03:09:16.565Z,0.83
2023-05-03T03:10:16.584Z,0.82
2023-05-03T03:11:16.626Z,0.83
2023-05-03T03:12:16.654Z,0.84
2023-05-03T03:13:16.688Z,0.84
2023-05-03T03:14:16.724Z,0.82
2023-05-03T03:15:16.741Z,0.84
2023-05-03T03:16:16.819Z,0.83
2023-05-03T03:17:16.813Z,0.82
2023-05-03T03:18:18.306Z,0.85
2023-05-03T03:19:16.832Z,0.84
2023-05-03T03:20:16.762Z,0.83
2023-05-03T03:21:16.724Z,0.82
2023-05-03T03:22:16.691Z,0.81
2023-05-03T03:23:16.659Z,0.83
2023-05-03T03:24:16.625Z,0.84
2023-05-03T03:25:16.587Z,0.83
2023-05-03T03:26:16.582Z,0.83
2023-05-03T03:27:16.535Z,0.82
2023-05-03T03:28:16.502Z,0.83
2023-05-03T03:29:16.456Z,0.81
2023-05-03T03:30:16.423Z,0.84
2023-05-03T03:31:16.416Z,0.82
2023-05-03T03:32:16.368Z,0.81
2023-05-03T03:33:16.398Z,0.78
2023-05-03T03:34:16.338Z,0.82
2023-05-03T03:35:16.292Z,0.77
2023-05-03T03:36:16.263Z,0.81
2023-05-03T03:37:16.227Z,0.79
2023-05-03T03:38:16.189Z,0.82
2023-05-03T03:39:16.163Z,0.82
2023-05-03T03:40:16.125Z,0.83
2023-05-03T03:41:16.094Z,0.81
2023-05-03T03:42:17.181Z,0.82
2023-05-03T03:43:16.061Z,0.79
2023-05-03T03:44:15.999Z,0.83
2023-05-03T03:45:15.933Z,0.82
2023-05-03T03:46:15.923Z,0.80
2023-05-03T03:47:15.939Z,0.81
2023-05-03T03:48:15.899Z,0.82
2023-05-03T03:49:15.831Z,0.83
2023-05-03T03:50:16.620Z,0.81
2023-05-03T03:51:15.758Z,0.81
2023-05-03T03:52:15.795Z,0.81
2023-05-03T03:53:15.845Z,0.80
2023-05-03T03:54:15.828Z,0.79
2023-05-03T03:55:15.859Z,0.80
2023-05-03T03:56:15.873Z,0.78
2023-05-03T03:57:15.980Z,0.80
2023-05-03T03:58:15.915Z,0.81
2023-05-03T03:59:15.928Z,0.81
2023-05-03T04:00:15.968Z,0.80
2023-05-03T04:01:15.966Z,0.81
2023-05-03T04:02:16.045Z,0.78
2023-05-03T04:03:16.107Z,0.78
2023-05-03T04:04:16.146Z,0.81
2023-05-03T04:05:16.068Z,0.80
2023-05-03T04:06:16.148Z,0.80
2023-05-03T04:07:16.116Z,0.79
2023-05-03T04:08:16.160Z,0.79
2023-05-03T04:09:17.144Z,0.80
2023-05-03T04:10:16.189Z,0.80
2023-05-03T04:11:16.219Z,0.78
2023-05-03T04:12:16.231Z,0.78
2023-05-03T04:13:16.264Z,0.80
2023-05-03T04:14:16.269Z,0.77
2023-05-03T04:15:16.331Z,0.77
2023-05-03T04:16:16.366Z,0.79
2023-05-03T04:17:16.343Z,0.80
2023-05-03T04:18:16.374Z,0.79
2023-05-03T04:19:16.393Z,0.77
2023-05-03T04:20:16.417Z,0.78
2023-05-03T04:21:17.130Z,0.79
2023-05-03T04:22:16.476Z,0.77
2023-05-03T04:23:16.486Z,0.78
2023-05-03T04:24:16.509Z,0.80
2023-05-03T04:25:16.523Z,0.76
2023-05-03T04:26:27.804Z,0.77
2023-05-03T04:27:17.511Z,0.77
2023-05-03T04:28:16.473Z,0.77
2023-05-03T04:29:16.436Z,0.78
2023-05-03T04:30:16.394Z,0.78
2023-05-03T04:31:17.200Z,0.76
2023-05-03T04:32:16.329Z,0.79
2023-05-03T04:33:16.303Z,0.77
2023-05-03T04:34:16.266Z,0.77
2023-05-03T04:35:16.216Z,0.78
2023-05-03T04:36:16.224Z,0.75
2023-05-03T04:37:16.233Z,0.77
2023-05-03T04:38:16.268Z,0.78
2023-05-03T04:39:16.282Z,0.74
2023-05-03T04:40:16.325Z,0.79
2023-05-03T04:41:16.331Z,0.76
2023-05-03T04:42:16.367Z,0.77
2023-05-03T04:43:16.369Z,0.77
2023-05-03T04:44:16.396Z,0.75
2023-05-03T04:45:16.422Z,0.75
2023-05-03T04:46:16.484Z,0.77
2023-05-03T04:47:16.455Z,0.77
2023-05-03T04:48:16.492Z,0.76
2023-05-03T04:49:16.494Z,0.76
2023-05-03T04:50:16.518Z,0.77
2023-05-03T04:51:16.540Z,0.75
2023-05-03T04:52:16.559Z,0.78
2023-05-03T04:53:16.589Z,0.77
2023-05-03T04:54:16.611Z,0.75
2023-05-03T04:55:16.636Z,0.71
2023-05-03T04:56:16.635Z,0.74
2023-05-03T04:57:16.653Z,0.74
2023-05-03T04:58:16.669Z,0.74
2023-05-03T04:59:16.698Z,0.74
2023-05-03T05:00:16.725Z,0.76
2023-05-03T05:01:16.763Z,0.75
2023-05-03T05:02:16.779Z,0.75
2023-05-03T05:03:16.915Z,0.75
2023-05-03T05:04:16.803Z,0.72
2023-05-03T05:05:18.061Z,0.71
2023-05-03T05:06:16.809Z,0.73
2023-05-03T05:07:16.748Z,0.75
2023-05-03T05:08:16.705Z,0.77
2023-05-03T05:09:16.663Z,0.75
2023-05-03T05:10:16.620Z,0.74
2023-05-03T05:11:16.581Z,0.71
2023-05-03T05:12:16.542Z,0.75
2023-05-03T05:13:16.495Z,0.73
2023-05-03T05:14:16.469Z,0.76
2023-05-03T05:15:16.432Z,0.74
2023-05-03T05:16:16.415Z,0.72
2023-05-03T05:17:16.409Z,0.74
2023-05-03T05:18:16.334Z,0.72
2023-05-03T05:19:16.277Z,0.70
2023-05-03T05:20:17.089Z,0.74
2023-05-03T05:21:16.222Z,0.75
2023-05-03T05:22:16.189Z,0.77
2023-05-03T05:23:16.145Z,0.79
2023-05-03T05:24:16.109Z,0.79
2023-05-03T05:25:16.108Z,0.77
2023-05-03T05:26:16.045Z,0.84
2023-05-03T05:27:16.020Z,0.85
2023-05-03T05:28:16.031Z,0.91
2023-05-03T05:29:16.008Z,0.93
2023-05-03T05:30:16.008Z,0.89
2023-05-03T05:31:16.027Z,0.93
2023-05-03T05:32:16.010Z,0.88
2023-05-03T05:33:17.513Z,0.92
2023-05-03T05:34:15.937Z,0.95
2023-05-03T05:35:15.899Z,0.91
2023-05-03T05:36:15.854Z,0.90
2023-05-03T05:37:15.815Z,0.93
2023-05-03T05:38:15.784Z,0.94
2023-05-03T05:39:15.736Z,0.96
2023-05-03T05:40:15.699Z,0.95
2023-05-03T05:41:15.754Z,0.94
2023-05-03T05:42:15.601Z,0.96
2023-05-03T05:43:15.578Z,0.96
2023-05-03T05:44:15.523Z,0.97
2023-05-03T05:45:15.498Z,0.99
2023-05-03T05:46:15.453Z,0.95
2023-05-03T05:47:15.529Z,0.91
2023-05-03T05:48:15.385Z,0.91
2023-05-03T05:49:15.320Z,0.98
2023-05-03T05:50:18.026Z,0.95
2023-05-03T05:51:15.242Z,0.95
2023-05-03T05:52:15.187Z,0.96
2023-05-03T05:53:15.147Z,0.95
2023-05-03T05:54:15.098Z,0.94
2023-05-03T05:55:15.076Z,1.01
2023-05-03T05:56:15.008Z,0.94
2023-05-03T05:57:14.978Z,0.95
2023-05-03T05:58:14.930Z,0.97
2023-05-03T05:59:14.896Z,0.95
2023-05-03T06:00:14.928Z,0.93
2023-05-03T06:01:14.839Z,0.94
2023-05-03T06:02:15.189Z,0.95
2023-05-03T06:03:14.781Z,0.93
2023-05-03T06:04:14.701Z,0.94
2023-05-03T06:05:14.786Z,0.98
2023-05-03T06:06:14.651Z,0.94
2023-05-03T06:07:14.604Z,0.97
2023-05-03T06:08:14.535Z,0.97
2023-05-03T06:09:24.316Z,0.95
2023-05-03T06:10:15.465Z,0.95
2023-05-03T06:11:14.445Z,0.96
2023-05-03T06:12:14.356Z,0.94
2023-05-03T06:13:14.322Z,0.93
2023-05-03T06:14:14.283Z,0.96
2023-05-03T06:15:14.232Z,0.93
2023-05-03T06:16:14.216Z,0.95
2023-05-03T06:17:14.174Z,0.91
2023-05-03T06:18:14.163Z,0.95
2023-05-03T06:19:14.098Z,0.92
2023-05-03T06:20:14.048Z,0.90
2023-05-03T06:21:13.999Z,0.89
2023-05-03T06:22:13.947Z,1.03
2023-05-03T06:23:13.927Z,1.02
2023-05-03T06:24:13.867Z,1.05
2023-05-03T06:25:15.243Z,1.09
2023-05-03T06:26:13.756Z,1.27
2023-05-03T06:27:13.711Z,1.23
2023-05-03T06:28:13.654Z,1.31
2023-05-03T06:29:13.614Z,1.32
2023-05-03T06:30:13.560Z,1.38
2023-05-03T06:31:13.542Z,1.45
2023-05-03T06:32:13.468Z,1.49
2023-05-03T06:33:13.435Z,1.60
2023-05-03T06:34:13.348Z,1.64
2023-05-03T06:35:13.286Z,1.70
2023-05-03T06:36:14.169Z,1.84
2023-05-03T06:37:13.677Z,1.90
2023-05-03T06:38:13.132Z,1.97
2023-05-03T06:39:13.083Z,2.09
2023-05-03T06:40:13.035Z,2.20
2023-05-03T06:41:12.984Z,2.17
2023-05-03T06:42:12.935Z,2.21
2023-05-03T06:43:12.875Z,2.33
2023-05-03T06:44:12.825Z,2.37
2023-05-03T06:45:12.762Z,2.47
2023-05-03T06:46:12.753Z,2.52
2023-05-03T06:47:12.651Z,2.64
2023-05-03T06:48:12.721Z,2.67
2023-05-03T06:49:12.536Z,2.69
2023-05-03T06:50:12.478Z,2.79
2023-05-03T06:51:12.425Z,2.86
2023-05-03T06:52:12.368Z,2.95
2023-05-03T06:53:12.310Z,2.99
2023-05-03T06:54:12.248Z,3.06
2023-05-03T06:55:12.282Z,3.18
2023-05-03T06:56:12.144Z,3.19
2023-05-03T06:57:12.087Z,3.25
2023-05-03T06:58:12.026Z,3.27
2023-05-03T06:59:11.977Z,3.39
2023-05-03T07:00:12.000Z,3.39
2023-05-03T07:01:11.961Z,3.68
2023-05-03T07:02:11.858Z,3.71
2023-05-03T07:03:11.944Z,3.60
2023-05-03T07:04:11.926Z,3.79
2023-05-03T07:05:11.790Z,3.88
2023-05-03T07:06:11.652Z,3.85
2023-05-03T07:07:11.645Z,3.92
2023-05-03T07:08:11.553Z,3.99
2023-05-03T07:09:11.523Z,4.10
2023-05-03T07:10:11.510Z,4.16
2023-05-03T07:11:11.681Z,4.18
2023-05-03T07:12:11.563Z,4.29
2023-05-03T07:13:11.446Z,4.26
2023-05-03T07:14:11.406Z,4.37
2023-05-03T07:15:11.383Z,4.42
2023-05-03T07:16:11.373Z,4.63
2023-05-03T07:17:11.339Z,4.65
2023-05-03T07:18:11.321Z,4.77
2023-05-03T07:19:11.272Z,4.72
2023-05-03T07:20:11.253Z,4.99
2023-05-03T07:21:11.232Z,4.88
2023-05-03T07:22:11.201Z,5.04
2023-05-03T07:23:11.175Z,4.97
2023-05-03T07:24:11.148Z,4.98
2023-05-03T07:25:11.179Z,4.82
2023-05-03T07:26:12.727Z,4.82
2023-05-03T07:27:11.050Z,4.80
2023-05-03T07:28:11.003Z,4.86
2023-05-03T07:29:10.946Z,4.84
2023-05-03T07:30:10.891Z,5.10
2023-05-03T07:31:10.866Z,5.05
2023-05-03T07:32:10.785Z,5.07
2023-05-03T07:33:10.801Z,5.14
2023-05-03T07:34:11.181Z,5.30
2023-05-03T07:35:10.600Z,5.55
2023-05-03T07:36:10.537Z,5.95
2023-05-03T07:37:10.469Z,6.17
2023-05-03T07:38:10.404Z,6.32
2023-05-03T07:39:10.348Z,6.52
2023-05-03T07:40:10.277Z,6.63
2023-05-03T07:41:10.256Z,7.02
2023-05-03T07:42:10.147Z,6.97
2023-05-03T07:43:10.074Z,7.17
2023-05-03T07:44:10.008Z,7.38
2023-05-03T07:45:09.990Z,7.48
2023-05-03T07:46:09.967Z,7.59
2023-05-03T07:47:09.924Z,7.84
2023-05-03T07:48:09.973Z,8.05
2023-05-03T07:49:09.892Z,8.28
2023-05-03T07:50:09.878Z,8.38
2023-05-03T07:51:09.859Z,8.55
2023-05-03T07:52:09.842Z,8.84
2023-05-03T07:53:09.789Z,8.97
2023-05-03T07:54:09.784Z,9.09
2023-05-03T07:55:09.775Z,9.35
2023-05-03T07:56:09.759Z,9.15
2023-05-03T07:57:09.763Z,9.33
2023-05-03T07:58:09.769Z,9.45
2023-05-03T07:59:10.592Z,9.76
2023-05-03T08:00:09.744Z,9.90
2023-05-03T08:01:09.749Z,10.02
2023-05-03T08:02:09.815Z,10.20
2023-05-03T08:03:09.883Z,10.39
2023-05-03T08:04:10.000Z,10.60
2023-05-03T08:05:09.928Z,11.03
2023-05-03T08:06:09.813Z,11.02
2023-05-03T08:07:09.733Z,11.26
2023-05-03T08:08:09.716Z,11.51
2023-05-03T08:09:09.711Z,14.24
2023-05-03T08:10:09.715Z,14.41
2023-05-03T08:11:09.640Z,14.42
2023-05-03T08:12:09.570Z,14.41
2023-05-03T08:13:09.496Z,14.38
2023-05-03T08:14:09.444Z,9.80
2023-05-03T08:15:09.524Z,5.59
2023-05-03T08:16:09.363Z,2.46
2023-05-03T08:17:09.228Z,2.15
2023-05-03T08:18:09.245Z,1.63
2023-05-03T08:19:09.124Z,1.77
2023-05-03T08:20:09.068Z,1.01
2023-05-03T08:21:09.057Z,0.66
2023-05-03T08:22:09.061Z,0.51
2023-05-03T08:23:09.033Z,0.51
2023-05-03T08:24:09.023Z,0.60
2023-05-03T08:25:08.943Z,0.38
2023-05-03T08:26:08.931Z,0.34
2023-05-03T08:27:08.918Z,0.34
2023-05-03T08:28:08.959Z,0.34
2023-05-03T08:29:08.948Z,0.45
2023-05-03T08:30:08.921Z,0.58
2023-05-03T08:31:09.148Z,0.75
2023-05-03T08:32:08.873Z,0.94
2023-05-03T08:33:08.892Z,1.20
2023-05-03T08:34:08.821Z,1.38
2023-05-03T08:35:08.799Z,1.47
2023-05-03T08:36:08.811Z,1.54
2023-05-03T08:37:08.839Z,1.60
2023-05-03T08:38:08.852Z,1.65
2023-05-03T08:39:08.831Z,1.75
2023-05-03T08:40:08.819Z,1.86
2023-05-03T08:41:08.797Z,1.98
2023-05-03T08:42:08.766Z,2.10
2023-05-03T08:43:08.728Z,2.24
2023-05-03T08:44:08.673Z,2.41
2023-05-03T08:45:08.632Z,2.67
2023-05-03T08:46:08.615Z,2.82
2023-05-03T08:47:08.587Z,3.04
2023-05-03T08:48:08.556Z,3.05
2023-05-03T08:49:08.445Z,3.25
2023-05-03T08:50:08.389Z,3.50
2023-05-03T08:51:08.334Z,3.74
2023-05-03T08:52:08.297Z,3.95
2023-05-03T08:53:08.248Z,4.02
2023-05-03T08:54:08.243Z,4.28
2023-05-03T08:55:08.243Z,4.52
2023-05-03T08:56:08.249Z,4.57
2023-05-03T08:57:08.240Z,4.86
2023-05-03T08:58:08.233Z,5.38
2023-05-03T08:59:08.252Z,5.52
2023-05-03T09:00:08.222Z,5.65
2023-05-03T09:01:08.225Z,5.87
2023-05-03T09:02:08.338Z,6.24
2023-05-03T09:03:08.298Z,6.55
2023-05-03T09:04:08.348Z,6.80
2023-05-03T09:05:08.227Z,7.05
2023-05-03T09:06:08.330Z,7.51
2023-05-03T09:07:08.225Z,7.47
2023-05-03T09:08:08.221Z,7.98
2023-05-03T09:09:08.240Z,8.17
2023-05-03T09:10:08.210Z,8.48
2023-05-03T09:11:08.203Z,8.71
2023-05-03T09:12:08.190Z,9.09
2023-05-03T09:13:08.189Z,9.47
2023-05-03T09:14:08.197Z,9.87
2023-05-03T09:15:08.182Z,10.15
2023-05-03T09:16:08.233Z,10.49
2023-05-03T09:17:08.215Z,11.21
2023-05-03T09:18:08.262Z,11.50
2023-05-03T09:19:08.183Z,11.13
2023-05-03T09:20:08.156Z,11.37
2023-05-03T09:21:08.153Z,11.25
2023-05-03T09:22:08.157Z,11.19
2023-05-03T09:23:08.172Z,10.92
2023-05-03T09:24:08.151Z,10.83
2023-05-03T09:25:08.144Z,10.49
2023-05-03T09:26:08.082Z,10.15
2023-05-03T09:27:08.034Z,10.21
2023-05-03T09:28:07.972Z,10.10
2023-05-03T09:29:07.922Z,9.79
2023-05-03T09:30:07.885Z,9.83
2023-05-03T09:31:07.868Z,9.77
2023-05-03T09:32:07.903Z,9.64
2023-05-03T09:33:07.840Z,9.71
2023-05-03T09:34:07.726Z,9.62
2023-05-03T09:35:07.726Z,9.46
2023-05-03T09:36:07.663Z,9.58
2023-05-03T09:37:07.652Z,9.51
2023-05-03T09:38:07.634Z,9.44
2023-05-03T09:39:07.586Z,9.31
2023-05-03T09:40:07.564Z,9.17
2023-05-03T09:41:07.544Z,9.29
2023-05-03T09:42:07.537Z,9.22
2023-05-03T09:43:07.548Z,9.02
2023-05-03T09:44:07.501Z,9.11
2023-05-03T09:45:07.777Z,9.01
2023-05-03T09:46:07.492Z,8.92
2023-05-03T09:47:07.455Z,8.87
2023-05-03T09:48:07.550Z,8.91
2023-05-03T09:49:07.442Z,8.93
2023-05-03T09:50:07.443Z,8.72
2023-05-03T09:51:07.478Z,8.78
2023-05-03T09:52:07.411Z,8.57
2023-05-03T09:53:07.408Z,8.54
2023-05-03T09:54:07.395Z,8.51
2023-05-03T09:55:07.397Z,8.69
2023-05-03T09:56:07.379Z,8.30
2023-05-03T09:57:07.379Z,8.35
2023-05-03T09:58:07.400Z,8.47
2023-05-03T09:59:07.372Z,8.29
2023-05-03T10:00:08.161Z,8.16
2023-05-03T10:01:07.386Z,8.11
2023-05-03T10:02:07.573Z,8.04
2023-05-03T10:03:07.406Z,7.97
2023-05-03T10:04:07.405Z,7.85
2023-05-03T10:05:07.374Z,7.75
2023-05-03T10:06:07.400Z,8.00
2023-05-03T10:07:07.588Z,7.69
2023-05-03T10:08:07.374Z,7.67
2023-05-03T10:09:07.375Z,7.66
2023-05-03T10:10:07.413Z,7.60
2023-05-03T10:11:07.380Z,7.51
2023-05-03T10:12:07.424Z,7.60
2023-05-03T10:13:08.633Z,7.39
2023-05-03T10:14:07.389Z,7.27
2023-05-03T10:15:07.402Z,7.46
2023-05-03T10:16:07.403Z,7.44
2023-05-03T10:17:07.378Z,7.17
2023-05-03T10:18:07.391Z,7.25
2023-05-03T10:19:07.400Z,7.03
2023-05-03T10:20:07.381Z,7.12
2023-05-03T10:21:07.555Z,6.91
2023-05-03T10:22:07.407Z,7.01
2023-05-03T10:23:07.378Z,6.84
2023-05-03T10:24:07.377Z,6.89
2023-05-03T10:25:07.432Z,6.73
2023-05-03T10:26:07.390Z,6.82
2023-05-03T10:27:07.356Z,6.73
2023-05-03T10:28:07.368Z,6.73
2023-05-03T10:29:07.366Z,6.68
2023-05-03T10:30:07.367Z,6.53
2023-05-03T10:31:08.348Z,6.55
2023-05-03T10:32:07.256Z,6.56
2023-05-03T10:33:07.312Z,6.56
2023-05-03T10:34:07.136Z,6.56
2023-05-03T10:35:07.270Z,6.38
2023-05-03T10:36:07.022Z,6.28
2023-05-03T10:37:07.079Z,6.32
2023-05-03T10:38:06.880Z,6.17
2023-05-03T10:39:06.917Z,6.17
2023-05-03T10:40:06.767Z,6.21
2023-05-03T10:41:06.834Z,6.11
2023-05-03T10:42:06.771Z,6.07
2023-05-03T10:43:06.764Z,5.99
2023-05-03T10:44:06.758Z,5.92
2023-05-03T10:45:06.876Z,6.02
2023-05-03T10:46:06.959Z,5.81
2023-05-03T10:47:06.762Z,5.82
2023-05-03T10:48:06.817Z,5.75
2023-05-03T10:49:06.786Z,5.73
2023-05-03T10:50:06.777Z,5.71
2023-05-03T10:51:06.797Z,5.56
2023-05-03T10:52:06.796Z,5.61
2023-05-03T10:53:06.793Z,5.50
2023-05-03T10:54:06.798Z,5.66
2023-05-03T10:55:06.810Z,5.48
2023-05-03T10:56:06.864Z,5.56
2023-05-03T10:57:06.819Z,5.45
2023-05-03T10:58:07.767Z,5.46
2023-05-03T10:59:06.853Z,5.48
2023-05-03T11:00:06.858Z,5.34
2023-05-03T11:01:06.875Z,5.43
2023-05-03T11:02:06.941Z,5.41
2023-05-03T11:03:06.947Z,5.19
2023-05-03T11:04:06.946Z,5.19
2023-05-03T11:05:07.416Z,5.22
2023-05-03T11:06:06.934Z,5.26
2023-05-03T11:07:06.926Z,5.20
2023-05-03T11:08:06.940Z,5.13
2023-05-03T11:09:06.971Z,5.09
2023-05-03T11:10:06.960Z,5.14
2023-05-03T11:11:06.972Z,5.00
2023-05-03T11:12:06.989Z,5.04
2023-05-03T11:13:06.991Z,5.02
2023-05-03T11:14:07.005Z,4.95
2023-05-03T11:15:07.006Z,4.90
2023-05-03T11:16:07.050Z,4.94
2023-05-03T11:17:07.047Z,5.02
2023-05-03T11:18:07.114Z,4.98
2023-05-03T11:19:07.062Z,4.91
2023-05-03T11:20:07.079Z,4.78
2023-05-03T11:21:07.061Z,5.00
2023-05-03T11:22:07.094Z,4.93
2023-05-03T11:23:07.083Z,4.82
2023-05-03T11:24:07.090Z,4.77
2023-05-03T11:25:07.112Z,4.81
2023-05-03T11:26:07.124Z,4.87
2023-05-03T11:27:08.481Z,4.79
2023-05-03T11:28:07.211Z,4.76
2023-05-03T11:29:07.162Z,4.81
2023-05-03T11:30:07.169Z,4.76
2023-05-03T11:31:07.189Z,4.80
2023-05-03T11:32:07.239Z,4.78
2023-05-03T11:33:07.291Z,4.71
2023-05-03T11:34:07.227Z,4.65
2023-05-03T11:35:07.218Z,4.67
2023-05-03T11:36:07.220Z,4.66
2023-05-03T11:37:07.236Z,4.63
2023-05-03T11:38:07.243Z,4.53
2023-05-03T11:39:07.264Z,4.63
2023-05-03T11:40:07.272Z,4.52
2023-05-03T11:41:07.272Z,4.59
2023-05-03T11:42:07.287Z,4.52
2023-05-03T11:43:07.318Z,4.43
2023-05-03T11:44:16.297Z,4.49
2023-05-03T11:45:08.681Z,4.49
2023-05-03T11:46:07.207Z,4.50
2023-05-03T11:47:07.426Z,4.46
2023-05-03T11:48:07.146Z,4.49
2023-05-03T11:49:06.963Z,4.37
2023-05-03T11:50:06.949Z,4.37
2023-05-03T11:51:06.883Z,4.35
2023-05-03T11:52:06.801Z,4.32
2023-05-03T11:53:06.745Z,4.34
2023-05-03T11:54:23.380Z,4.31
2023-05-03T11:55:07.668Z,4.32
2023-05-03T11:56:06.602Z,4.32
2023-05-03T11:57:06.561Z,4.26
2023-05-03T11:58:06.496Z,4.26
2023-05-03T11:59:06.453Z,4.26
2023-05-03T12:00:06.381Z,4.21
2023-05-03T12:01:06.317Z,4.25
2023-05-03T12:02:06.569Z,4.03
2023-05-03T12:03:06.277Z,4.07
2023-05-03T12:04:06.550Z,4.18
2023-05-03T12:05:06.773Z,4.02
2023-05-03T12:06:06.420Z,4.10
2023-05-03T12:07:06.200Z,4.02
2023-05-03T12:08:06.298Z,4.00
2023-05-03T12:09:06.012Z,3.98
2023-05-03T12:10:15.468Z,3.96
2023-05-03T12:11:07.286Z,3.97
2023-05-03T12:12:06.521Z,3.97
2023-05-03T12:13:05.996Z,3.97
2023-05-03T12:14:05.611Z,3.97
2023-05-03T12:15:07.738Z,3.99
2023-05-03T12:16:12.747Z,3.96
2023-05-03T12:17:07.520Z,3.97
2023-05-03T12:18:05.655Z,3.98
2023-05-03T12:19:05.606Z,3.94
2023-05-03T12:20:33.616Z,3.99
2023-05-03T12:22:20.619Z,3.97
2023-05-03T12:23:08.668Z,3.98
2023-05-03T12:24:06.159Z,3.98
2023-05-03T12:25:05.445Z,3.99
2023-05-03T12:26:05.499Z,3.94
2023-05-03T12:27:06.929Z,3.84
2023-05-03T12:28:17.647Z,3.96
2023-05-03T12:29:06.854Z,3.97
2023-05-03T12:30:05.242Z,3.96
2023-05-03T12:31:05.472Z,3.83
2023-05-03T12:32:05.288Z,3.79
2023-05-03T12:33:05.322Z,3.81
2023-05-03T12:34:27.798Z,3.69
2023-05-03T12:35:08.008Z,3.70
2023-05-03T12:36:04.633Z,3.70
2023-05-03T12:37:06.062Z,3.71
2023-05-03T12:38:04.739Z,3.70
2023-05-03T12:39:05.645Z,3.70
2023-05-03T12:41:08.796Z,3.70
2023-05-03T12:42:07.105Z,3.70
2023-05-03T12:43:04.485Z,3.70
2023-05-03T12:44:04.079Z,3.69
2023-05-03T12:47:04.545Z,3.67
2023-05-03T12:48:04.006Z,3.60
2023-05-03T12:49:06.779Z,3.58
2023-05-03T12:50:06.034Z,3.69
2023-05-03T12:51:18.647Z,3.69
2023-05-03T12:53:08.506Z,3.70
2023-05-03T12:54:04.488Z,3.71
2023-05-03T12:55:04.317Z,3.72
2023-05-03T12:56:06.250Z,3.64
2023-05-03T12:57:06.362Z,3.69
2023-05-03T13:00:03.957Z,3.69
2023-05-03T13:01:47.609Z,3.58
2023-05-03T13:02:57.744Z,3.69
2023-05-03T13:05:09.632Z,3.64
2023-05-03T13:06:11.840Z,3.69
2023-05-03T13:07:03.828Z,3.70
2023-05-03T13:09:03.501Z,3.54
2023-05-03T13:11:03.549Z,3.49
2023-05-03T13:12:02.583Z,3.35
2023-05-03T13:13:02.354Z,3.21
2023-05-03T13:14:02.319Z,3.21
2023-05-03T13:15:02.628Z,3.16
2023-05-03T13:16:02.244Z,3.14
2023-05-03T13:17:02.146Z,3.06
2023-05-03T13:18:02.149Z,3.03
2023-05-03T13:19:02.040Z,3.02
2023-05-03T13:20:02.005Z,2.97
2023-05-03T13:21:01.969Z,2.97
2023-05-03T13:22:01.970Z,2.93
2023-05-03T13:23:01.916Z,2.94
2023-05-03T13:24:01.900Z,2.86
2023-05-03T13:25:02.068Z,2.91
2023-05-03T13:26:01.895Z,2.86
2023-05-03T13:27:01.864Z,2.84
2023-05-03T13:28:02.031Z,2.84